Main page
METAR-TAF:

METAR-TAF

Airports :

Kerry Airport

Killarney, Ireland

latitude: 52-10-51N, longitude: 9-31-26W, elevation: 34 m

Current weather observation

The report was made 3 hours and 24 minutes ago, at 19:30 UTC
Wind 5 kt from the East
Temperature 4°C
Humidity 100%
Pressure 992 hPa
Visibility 10 km or more
Few clouds at a height of 1700 ft

METAR: EIKY 211930Z 10005KT 9999 FEW017 04/04 Q0992

Time: 22:54 (22:54 UTC)

Forecast

The report was made 5 hours and 54 minutes ago, at 17:00 UTC
Forecast valid from 21 at 18 UTC to 22 at 03 UTC
Wind 5 kt from the East
Visibility 10 km or more
Scattered clouds at a height of 1400 ft
Broken clouds at a height of 2200 ft
Temporary
from 21 at 18 UTC to 21 at 21 UTC
Visibility: 5000 m
Broken clouds at a height of 1000 ft
light rain

TAF: EIKY 211700Z 2118/2203 10005KT 9999 SCT014 BKN022 TEMPO 2118/2121 5000 -RA BKN010

Weather observations and forecasts of more than 4000 airports (METAR and TAF reports).

The available stations are represented by yellow and red dots on the map.

Hover mouse over dot to see the name of the station.

Then click to see weather observations and forecasts.

To change the map : click on the green buttons with a black cross to zoom in, on the green button with a dash to zoom out, or on the green arrows for adjacent maps.


METAR-TAF: